createdAt,value
2019-05-25T00:01:00.012Z,5.72
2019-05-25T00:03:28.392Z,5.25
2019-05-25T00:05:56.788Z,5.33
2019-05-25T00:08:25.193Z,4.95
2019-05-25T00:10:53.587Z,4.83
2019-05-25T00:13:22.039Z,4.85
2019-05-25T00:15:50.447Z,4.65
2019-05-25T00:18:18.838Z,4.80
2019-05-25T00:20:47.231Z,4.35
2019-05-25T00:23:15.613Z,4.80
2019-05-25T00:25:44.019Z,4.40
2019-05-25T00:28:12.420Z,4.45
2019-05-25T00:30:40.902Z,4.25
2019-05-25T00:33:09.316Z,4.50
2019-05-25T00:35:37.771Z,3.95
2019-05-25T00:38:06.402Z,4.25
2019-05-25T00:40:34.800Z,4.17
2019-05-25T00:43:03.348Z,4.33
2019-05-25T00:45:31.755Z,4.45
2019-05-25T00:48:00.212Z,4.50
2019-05-25T00:50:28.599Z,4.33
2019-05-25T00:52:57.059Z,4.30
2019-05-25T00:55:25.455Z,4.20
2019-05-25T00:57:53.852Z,4.15
2019-05-25T01:00:22.500Z,3.77
2019-05-25T01:02:51.440Z,3.60
2019-05-25T01:05:19.792Z,4.10
2019-05-25T01:07:48.189Z,3.95
2019-05-25T01:10:16.812Z,4.12
2019-05-25T01:12:45.200Z,4.15
2019-05-25T01:15:14.794Z,4.25
2019-05-25T01:17:43.192Z,4.33
2019-05-25T01:20:12.051Z,4.10
2019-05-25T01:22:40.509Z,3.92
2019-05-25T01:25:09.452Z,4.62
2019-05-25T01:27:37.849Z,4.25
2019-05-25T01:30:08.783Z,4.12
2019-05-25T01:32:37.252Z,3.98
2019-05-25T01:35:06.476Z,4.15
2019-05-25T01:37:34.874Z,4.10
2019-05-25T01:40:04.540Z,3.95
2019-05-25T01:42:32.976Z,3.80
2019-05-25T01:45:01.402Z,3.50
2019-05-25T01:47:29.808Z,4.17
2019-05-25T01:49:58.246Z,3.83
2019-05-25T01:52:26.657Z,4.60
2019-05-25T01:55:00.047Z,4.90
2019-05-25T01:57:25.534Z,4.67
2019-05-25T01:59:53.927Z,4.42
2019-05-25T02:02:22.323Z,4.97
2019-05-25T02:04:50.712Z,4.92
2019-05-25T02:07:19.183Z,5.40
2019-05-25T02:09:47.560Z,5.53
2019-05-25T02:12:16.035Z,5.45
2019-05-25T02:14:44.412Z,6.08
2019-05-25T02:17:12.812Z,6.65
2019-05-25T02:19:41.196Z,6.40
2019-05-25T02:22:09.639Z,6.53
2019-05-25T02:24:38.041Z,6.53
2019-05-25T02:27:06.439Z,6.95
2019-05-25T02:29:34.816Z,6.67
2019-05-25T02:32:03.211Z,6.85
2019-05-25T02:34:31.604Z,7.25
2019-05-25T02:37:00.008Z,7.75
2019-05-25T02:39:28.402Z,7.25
2019-05-25T02:41:56.788Z,6.70
2019-05-25T02:44:25.214Z,6.97
2019-05-25T02:46:53.586Z,6.67
2019-05-25T02:49:21.976Z,6.10
2019-05-25T02:51:50.370Z,7.70
2019-05-25T02:54:20.138Z,8.53
2019-05-25T02:56:48.516Z,7.55
2019-05-25T02:59:16.923Z,7.25
2019-05-25T03:01:45.298Z,7.85
2019-05-25T03:04:13.953Z,8.08
2019-05-25T03:06:43.274Z,8.70
2019-05-25T03:09:11.671Z,6.65
2019-05-25T03:11:41.221Z,8.55
2019-05-25T03:14:09.621Z,8.85
2019-05-25T03:16:38.057Z,9.03
2019-05-25T03:19:06.469Z,9.00
2019-05-25T03:21:34.854Z,8.73
2019-05-25T03:24:03.255Z,8.08
2019-05-25T03:26:31.639Z,9.43
2019-05-25T03:29:00.050Z,9.78
2019-05-25T03:31:28.441Z,8.13
2019-05-25T03:33:56.842Z,9.60
2019-05-25T03:36:25.229Z,10.18
2019-05-25T03:38:53.633Z,9.40
2019-05-25T03:41:22.083Z,9.90
2019-05-25T03:43:50.487Z,8.70
2019-05-25T03:46:18.875Z,8.73
2019-05-25T03:48:47.368Z,9.35
2019-05-25T03:51:15.827Z,7.80
2019-05-25T03:53:44.536Z,7.92
2019-05-25T03:56:12.916Z,9.95
2019-05-25T03:58:41.329Z,9.30
2019-05-25T04:01:10.381Z,8.90
2019-05-25T04:03:38.792Z,8.55
2019-05-25T04:06:08.451Z,9.65
2019-05-25T04:08:36.856Z,9.37
2019-05-25T04:11:05.351Z,8.63
2019-05-25T04:13:34.025Z,8.70
2019-05-25T04:16:02.413Z,8.35
2019-05-25T04:18:31.652Z,9.20
2019-05-25T04:21:00.076Z,9.25
2019-05-25T04:23:28.453Z,9.35
2019-05-25T04:25:57.155Z,9.73
2019-05-25T04:28:26.907Z,8.28
2019-05-25T04:30:55.317Z,7.62
2019-05-25T04:33:23.730Z,9.25
2019-05-25T04:35:52.124Z,9.90
2019-05-25T04:38:20.508Z,9.40
2019-05-25T04:40:48.984Z,8.75
2019-05-25T04:43:17.362Z,9.05
2019-05-25T04:45:45.754Z,8.50
2019-05-25T04:48:14.153Z,9.25
2019-05-25T04:50:42.564Z,8.38
2019-05-25T04:53:10.958Z,9.08
2019-05-25T04:55:39.360Z,8.83
2019-05-25T04:58:07.760Z,8.45
2019-05-25T05:00:36.222Z,8.23
2019-05-25T05:03:04.687Z,8.85
2019-05-25T05:05:33.084Z,8.85
2019-05-25T05:08:01.973Z,8.20
2019-05-25T05:10:30.393Z,8.45
2019-05-25T05:12:58.781Z,8.10
2019-05-25T05:15:27.192Z,8.93
2019-05-25T05:17:55.664Z,7.62
2019-05-25T05:20:24.078Z,9.05
2019-05-25T05:22:52.544Z,7.90
2019-05-25T05:25:20.967Z,7.87
2019-05-25T05:27:49.811Z,8.53
2019-05-25T05:30:21.721Z,6.62
2019-05-25T05:32:53.417Z,6.97
2019-05-25T05:35:21.816Z,7.33
2019-05-25T05:37:50.295Z,7.40
2019-05-25T05:40:18.762Z,7.22
2019-05-25T05:42:49.273Z,7.10
2019-05-25T05:47:46.995Z,6.47
2019-05-25T05:50:15.805Z,6.62
2019-05-25T05:52:44.676Z,5.47
2019-05-25T05:55:17.159Z,7.97
2019-05-25T05:57:43.739Z,6.00
2019-05-25T06:00:13.255Z,6.22
2019-05-25T06:02:41.682Z,6.85
2019-05-25T06:05:10.195Z,6.58
2019-05-25T06:07:38.588Z,5.97
2019-05-25T06:10:08.131Z,6.60
2019-05-25T06:12:36.535Z,7.08
2019-05-25T06:15:07.886Z,6.95
2019-05-25T06:17:36.286Z,7.25
2019-05-25T06:20:06.622Z,5.80
2019-05-25T06:22:36.450Z,6.53
2019-05-25T06:25:09.374Z,7.00
2019-05-25T06:27:37.769Z,6.35
2019-05-25T06:30:09.054Z,6.67
2019-05-25T06:32:37.462Z,7.42
2019-05-25T06:35:09.973Z,7.65
2019-05-25T06:37:38.369Z,6.70
2019-05-25T06:40:08.202Z,6.10
2019-05-25T06:42:36.602Z,7.90
2019-05-25T06:45:09.090Z,8.20
2019-05-25T06:47:37.565Z,7.17
2019-05-25T06:50:07.866Z,7.08
2019-05-25T06:52:36.275Z,8.00
2019-05-25T06:55:06.599Z,8.25
2019-05-25T06:57:43.063Z,7.50
2019-05-25T07:00:06.935Z,6.87
2019-05-25T07:02:35.327Z,7.37
2019-05-25T07:05:06.053Z,6.78
2019-05-25T07:07:34.443Z,7.53
2019-05-25T07:10:03.206Z,4.92
2019-05-25T07:12:31.616Z,6.60
2019-05-25T07:15:00.020Z,7.83
2019-05-25T07:17:28.417Z,6.40
2019-05-25T07:19:56.823Z,7.03
2019-05-25T07:22:25.274Z,7.47
2019-05-25T07:24:53.673Z,6.53
2019-05-25T07:27:22.059Z,7.30
2019-05-25T07:29:50.448Z,6.30
2019-05-25T07:32:18.826Z,7.12
2019-05-25T07:34:47.224Z,7.40
2019-05-25T07:37:15.609Z,9.00
2019-05-25T07:39:44.266Z,6.67
2019-05-25T07:42:12.663Z,6.72
2019-05-25T07:44:41.053Z,6.62
2019-05-25T07:47:09.452Z,7.65
2019-05-25T07:49:37.848Z,5.70
2019-05-25T07:52:06.232Z,5.62
2019-05-25T07:54:34.633Z,6.47
2019-05-25T07:57:03.026Z,6.58
2019-05-25T07:59:31.411Z,5.10
2019-05-25T08:02:00.093Z,5.87
2019-05-25T08:04:28.480Z,5.55
2019-05-25T08:06:56.860Z,5.17
2019-05-25T08:09:25.278Z,6.25
2019-05-25T08:11:53.663Z,6.62
2019-05-25T08:14:22.060Z,5.85
2019-05-25T08:16:50.470Z,5.75
2019-05-25T08:19:18.860Z,6.08
2019-05-25T08:21:47.252Z,5.67
2019-05-25T08:24:15.652Z,6.00
2019-05-25T08:26:44.041Z,6.08
2019-05-25T08:29:12.431Z,5.17
2019-05-25T08:31:40.831Z,5.30
2019-05-25T08:34:09.680Z,5.60
2019-05-25T08:36:38.099Z,6.03
2019-05-25T08:39:07.316Z,5.42
2019-05-25T08:41:35.715Z,4.67
2019-05-25T08:44:05.488Z,4.97
2019-05-25T08:46:33.879Z,5.87
2019-05-25T08:49:02.262Z,5.58
2019-05-25T08:51:30.656Z,6.08
2019-05-25T08:53:59.043Z,5.90
2019-05-25T08:56:27.450Z,7.12
2019-05-25T08:58:55.852Z,6.12
2019-05-25T09:01:24.267Z,6.67
2019-05-25T09:03:52.724Z,5.65
2019-05-25T09:06:22.795Z,5.22
2019-05-25T09:08:51.229Z,6.80
2019-05-25T09:11:19.613Z,5.30
2019-05-25T09:13:47.995Z,6.10
2019-05-25T09:16:16.470Z,4.92
2019-05-25T09:18:44.943Z,5.72
2019-05-25T09:21:13.336Z,6.80
2019-05-25T09:23:41.713Z,5.37
2019-05-25T09:26:13.238Z,4.67
2019-05-25T09:28:40.963Z,6.95
2019-05-25T09:31:09.360Z,5.78
2019-05-25T09:33:37.770Z,6.08
2019-05-25T09:36:06.169Z,6.42
2019-05-25T09:38:34.548Z,6.67
2019-05-25T09:41:02.935Z,5.42
2019-05-25T09:43:33.939Z,5.42
2019-05-25T09:48:30.761Z,7.00
2019-05-25T09:50:59.177Z,6.17
2019-05-25T09:53:27.547Z,5.70
2019-05-25T09:55:55.961Z,5.45
2019-05-25T09:58:24.356Z,6.35
2019-05-25T10:00:52.732Z,5.37
2019-05-25T10:03:21.120Z,6.60
2019-05-25T10:05:49.508Z,6.30
2019-05-25T10:08:17.905Z,5.58
2019-05-25T10:10:46.720Z,4.85
2019-05-25T10:13:15.143Z,6.42
2019-05-25T10:15:43.508Z,6.87
2019-05-25T10:18:12.174Z,6.90
2019-05-25T10:20:40.824Z,7.67
2019-05-25T10:23:09.228Z,6.10
2019-05-25T10:25:37.617Z,5.97
2019-05-25T10:28:06.076Z,6.37
2019-05-25T10:30:34.528Z,5.35
2019-05-25T10:33:02.917Z,6.22
2019-05-25T10:35:31.359Z,7.08
2019-05-25T10:37:59.803Z,6.40
2019-05-25T10:40:28.200Z,6.67
2019-05-25T10:42:56.603Z,5.92
2019-05-25T10:45:24.983Z,6.22
2019-05-25T10:47:53.384Z,5.58
2019-05-25T10:50:22.382Z,5.50
2019-05-25T10:52:50.777Z,5.28
2019-05-25T10:55:19.242Z,7.05
2019-05-25T10:57:47.627Z,5.95
2019-05-25T11:00:19.101Z,5.22
2019-05-25T11:02:47.512Z,5.53
2019-05-25T11:05:16.321Z,4.62
2019-05-25T11:07:44.724Z,5.08
2019-05-25T11:10:13.757Z,5.33
2019-05-25T11:12:42.151Z,5.75
2019-05-25T11:15:11.477Z,6.28
2019-05-25T11:17:39.866Z,5.33
2019-05-25T11:20:09.679Z,6.50
2019-05-25T11:22:38.149Z,5.85
2019-05-25T11:25:08.765Z,5.53
2019-05-25T11:27:37.387Z,5.70
2019-05-25T11:30:09.596Z,5.75
2019-05-25T11:32:37.127Z,7.17
2019-05-25T11:35:08.351Z,6.58
2019-05-25T11:37:36.741Z,7.30
2019-05-25T11:40:09.911Z,6.28
2019-05-25T11:42:38.288Z,5.62
2019-05-25T11:45:08.387Z,6.22
2019-05-25T11:47:36.774Z,6.50
2019-05-25T11:50:07.083Z,6.53
2019-05-25T11:55:04.483Z,6.92
2019-05-25T11:57:32.879Z,5.95
2019-05-25T12:00:01.272Z,6.58
2019-05-25T12:02:29.681Z,6.62
2019-05-25T12:04:58.079Z,6.33
2019-05-25T12:07:26.464Z,7.12
2019-05-25T12:09:54.872Z,7.78
2019-05-25T12:12:23.261Z,8.33
2019-05-25T12:14:51.700Z,8.13
2019-05-25T12:17:20.329Z,7.60
2019-05-25T12:19:48.758Z,7.40
2019-05-25T12:22:17.139Z,8.13
2019-05-25T12:24:45.538Z,7.50
2019-05-25T12:27:13.928Z,7.30
2019-05-25T12:29:42.332Z,7.53
2019-05-25T12:32:10.727Z,6.72
2019-05-25T12:34:39.145Z,7.17
2019-05-25T12:37:07.528Z,7.45
2019-05-25T12:39:35.908Z,6.25
2019-05-25T12:42:04.375Z,6.65
2019-05-25T12:44:34.542Z,5.62
2019-05-25T12:47:02.885Z,5.53
2019-05-25T12:49:48.484Z,5.60
2019-05-25T12:52:01.388Z,6.35
2019-05-25T12:54:29.787Z,5.72
2019-05-25T12:56:58.195Z,5.62
2019-05-25T12:59:26.649Z,5.80
2019-05-25T13:01:55.040Z,5.85
2019-05-25T13:04:23.435Z,5.62
2019-05-25T13:06:51.840Z,5.17
2019-05-25T13:09:20.232Z,5.55
2019-05-25T13:11:48.625Z,6.67
2019-05-25T13:14:17.082Z,5.50
2019-05-25T13:16:45.483Z,4.35
2019-05-25T13:19:13.944Z,4.92
2019-05-25T13:21:42.464Z,4.50
2019-05-25T13:24:10.840Z,5.62
2019-05-25T13:26:39.244Z,4.47
2019-05-25T13:29:07.653Z,3.75
2019-05-25T13:31:36.066Z,3.50
2019-05-25T13:34:04.437Z,4.00
2019-05-25T13:36:32.838Z,3.95
2019-05-25T13:39:01.228Z,3.27
2019-05-25T13:41:29.709Z,3.62
2019-05-25T13:43:58.103Z,3.35
2019-05-25T13:46:26.514Z,4.55
2019-05-25T13:48:54.904Z,2.62
2019-05-25T13:51:23.293Z,4.30
2019-05-25T13:53:52.033Z,2.50
2019-05-25T13:56:20.464Z,1.80
2019-05-25T13:58:48.929Z,2.00
2019-05-25T14:01:28.052Z,2.30
2019-05-25T14:03:47.439Z,2.25
2019-05-25T14:06:15.840Z,2.02
2019-05-25T14:08:44.220Z,1.60
2019-05-25T14:11:12.607Z,1.77
2019-05-25T14:13:41.008Z,1.80
2019-05-25T14:16:09.402Z,1.27
2019-05-25T14:18:37.800Z,3.47
2019-05-25T14:21:06.197Z,1.55
2019-05-25T14:23:34.931Z,2.00
2019-05-25T14:26:04.380Z,2.15
2019-05-25T14:28:32.761Z,1.20
2019-05-25T14:31:01.136Z,1.00
2019-05-25T14:33:29.533Z,1.00
2019-05-25T14:35:57.911Z,0.70
2019-05-25T14:38:26.304Z,0.65
2019-05-25T14:40:54.697Z,1.10
2019-05-25T14:43:23.132Z,0.60
2019-05-25T14:45:53.339Z,0.57
2019-05-25T14:48:23.096Z,0.70
2019-05-25T14:50:51.492Z,0.68
2019-05-25T14:53:19.884Z,0.68
2019-05-25T14:55:48.275Z,1.35
2019-05-25T14:58:16.685Z,0.70
2019-05-25T15:00:45.069Z,0.90
2019-05-25T15:03:13.460Z,0.80
2019-05-25T15:05:41.862Z,0.70
2019-05-25T15:08:11.121Z,0.50
2019-05-25T15:10:39.507Z,0.50
2019-05-25T15:13:08.226Z,0.68
2019-05-25T15:15:36.617Z,0.40
2019-05-25T15:18:05.001Z,0.50
2019-05-25T15:20:33.778Z,0.47
2019-05-25T15:23:02.204Z,0.60
2019-05-25T15:25:30.645Z,0.45
2019-05-25T15:27:59.056Z,0.80
2019-05-25T15:30:27.533Z,0.68
2019-05-25T15:32:55.934Z,0.40
2019-05-25T15:35:24.312Z,0.42
2019-05-25T15:37:53.155Z,0.95
2019-05-25T15:40:21.895Z,0.85
2019-05-25T15:42:50.280Z,0.80
2019-05-25T15:45:18.782Z,0.60
2019-05-25T15:47:47.162Z,0.50
2019-05-25T15:50:16.598Z,0.90
2019-05-25T15:52:44.986Z,0.67
2019-05-25T15:55:13.717Z,1.10
2019-05-25T15:57:42.108Z,0.72
2019-05-25T16:00:12.007Z,0.80
2019-05-25T16:02:40.393Z,0.85
2019-05-25T16:05:09.241Z,0.93
2019-05-25T16:07:41.092Z,0.90
2019-05-25T16:10:10.145Z,0.70
2019-05-25T16:12:38.532Z,0.70
2019-05-25T16:15:10.127Z,0.57
2019-05-25T16:17:39.154Z,0.70
2019-05-25T16:20:07.786Z,0.75
2019-05-25T16:22:36.184Z,0.70
2019-05-25T16:25:06.960Z,1.00
2019-05-25T16:27:35.430Z,1.00
2019-05-25T16:30:06.322Z,0.78
2019-05-25T16:32:34.791Z,0.75
2019-05-25T16:35:03.846Z,0.50
2019-05-25T16:37:32.315Z,0.95
2019-05-25T16:40:00.713Z,0.80
2019-05-25T16:42:29.106Z,0.85
2019-05-25T16:44:57.493Z,0.80
2019-05-25T16:47:25.883Z,1.82
2019-05-25T16:49:54.291Z,1.40
2019-05-25T16:52:22.720Z,0.93
2019-05-25T16:54:51.097Z,1.52
2019-05-25T16:57:19.488Z,1.75
2019-05-25T16:59:47.871Z,0.90
2019-05-25T17:02:16.264Z,1.15
2019-05-25T17:04:44.643Z,1.17
2019-05-25T17:07:13.252Z,0.90
2019-05-25T17:09:41.637Z,1.02
2019-05-25T17:12:10.195Z,1.00
2019-05-25T17:14:38.567Z,1.10
2019-05-25T17:17:06.972Z,1.30
2019-05-25T17:19:35.351Z,1.72
2019-05-25T17:22:03.826Z,0.88
2019-05-25T17:24:32.197Z,1.15
2019-05-25T17:27:00.996Z,2.60
2019-05-25T17:29:29.472Z,1.75
2019-05-25T17:31:57.981Z,1.47
2019-05-25T17:34:26.453Z,1.45
2019-05-25T17:36:54.836Z,1.30
2019-05-25T17:39:23.236Z,1.50
2019-05-25T17:41:51.697Z,1.60
2019-05-25T17:44:20.087Z,1.27
2019-05-25T17:46:48.479Z,1.42
2019-05-25T17:49:16.879Z,0.90
2019-05-25T17:51:45.633Z,1.10
2019-05-25T17:54:14.045Z,1.30
2019-05-25T17:56:42.433Z,1.30
2019-05-25T17:59:10.844Z,0.95
2019-05-25T18:01:39.231Z,1.10
2019-05-25T18:04:08.127Z,1.07
2019-05-25T18:06:36.709Z,1.47
2019-05-25T18:09:07.804Z,1.90
2019-05-25T18:11:36.192Z,1.40
2019-05-25T18:14:05.221Z,1.02
2019-05-25T18:16:33.718Z,2.72
2019-05-25T18:19:02.113Z,1.67
2019-05-25T18:21:30.603Z,1.80
2019-05-25T18:23:59.008Z,1.82
2019-05-25T18:26:27.378Z,1.75
2019-05-25T18:28:55.839Z,1.80
2019-05-25T18:31:24.228Z,1.87
2019-05-25T18:33:52.622Z,1.22
2019-05-25T18:36:21.004Z,1.40
2019-05-25T18:38:49.437Z,1.90
2019-05-25T18:41:18.070Z,1.35
2019-05-25T18:43:46.485Z,2.02
2019-05-25T18:46:15.136Z,1.75
2019-05-25T18:48:43.568Z,1.62
2019-05-25T18:51:11.987Z,2.15
2019-05-25T18:53:40.457Z,1.65
2019-05-25T18:56:08.827Z,1.42
2019-05-25T18:58:37.252Z,1.92
2019-05-25T19:01:06.022Z,1.55
2019-05-25T19:03:34.722Z,1.60
2019-05-25T19:06:03.160Z,1.60
2019-05-25T19:08:31.897Z,2.60
2019-05-25T19:11:00.289Z,2.02
2019-05-25T19:13:28.675Z,1.92
2019-05-25T19:15:57.060Z,1.77
2019-05-25T19:18:25.480Z,2.42
2019-05-25T19:20:53.895Z,1.87
2019-05-25T19:23:22.284Z,1.72
2019-05-25T19:25:50.677Z,2.52
2019-05-25T19:28:19.062Z,2.33
2019-05-25T19:30:47.458Z,2.83
2019-05-25T19:33:15.836Z,1.70
2019-05-25T19:35:44.233Z,2.27
2019-05-25T19:38:12.613Z,2.10
2019-05-25T19:40:41.012Z,2.00
2019-05-25T19:43:09.394Z,2.02
2019-05-25T19:45:37.836Z,2.00
2019-05-25T19:48:06.225Z,2.15
2019-05-25T19:50:34.608Z,2.02
2019-05-25T19:53:02.997Z,2.08
2019-05-25T19:55:31.392Z,2.00
2019-05-25T19:57:59.785Z,2.35
2019-05-25T20:00:28.180Z,2.30
2019-05-25T20:02:56.573Z,2.50
2019-05-25T20:05:26.321Z,2.20
2019-05-25T20:07:54.699Z,2.20
2019-05-25T20:10:23.828Z,2.20
2019-05-25T20:12:52.270Z,2.70
2019-05-25T20:15:20.748Z,2.52
2019-05-25T20:17:49.131Z,2.62
2019-05-25T20:20:18.301Z,2.92
2019-05-25T20:22:46.999Z,2.87
2019-05-25T20:25:15.505Z,2.85
2019-05-25T20:27:43.909Z,2.90
2019-05-25T20:30:13.036Z,3.70
2019-05-25T20:32:41.429Z,3.70
2019-05-25T20:35:09.988Z,2.77
2019-05-25T20:37:38.389Z,3.30
2019-05-25T20:40:08.381Z,3.20
2019-05-25T20:42:36.864Z,3.70
2019-05-25T20:45:07.079Z,3.98
2019-05-25T20:47:35.475Z,4.53
2019-05-25T20:50:06.664Z,4.92
2019-05-25T20:52:35.088Z,4.70
2019-05-25T20:55:04.656Z,5.30
2019-05-25T20:57:33.323Z,5.40
2019-05-25T21:00:01.692Z,4.92
2019-05-25T21:02:30.364Z,5.47
2019-05-25T21:04:58.750Z,5.92
2019-05-25T21:07:27.155Z,5.12
2019-05-25T21:09:55.527Z,5.80
2019-05-25T21:12:24.316Z,5.97
2019-05-25T21:14:52.703Z,5.33
2019-05-25T21:17:21.098Z,5.20
2019-05-25T21:19:49.489Z,5.85
2019-05-25T21:22:17.871Z,5.17
2019-05-25T21:24:46.263Z,4.83
2019-05-25T21:27:14.676Z,4.97
2019-05-25T21:29:43.074Z,5.40
2019-05-25T21:32:11.476Z,5.75
2019-05-25T21:34:39.858Z,5.78
2019-05-25T21:37:08.236Z,5.78
2019-05-25T21:39:36.624Z,5.60
2019-05-25T21:42:05.031Z,5.15
2019-05-25T21:44:33.414Z,5.75
2019-05-25T21:47:01.799Z,6.20
2019-05-25T21:49:30.489Z,5.87
2019-05-25T21:51:58.875Z,6.50
2019-05-25T21:54:27.269Z,6.60
2019-05-25T21:56:55.669Z,6.42
2019-05-25T21:59:24.063Z,7.40
2019-05-25T22:01:52.458Z,6.95
2019-05-25T22:04:20.871Z,6.90
2019-05-25T22:06:49.500Z,6.60
2019-05-25T22:09:17.912Z,7.33
2019-05-25T22:11:46.298Z,6.85
2019-05-25T22:14:14.699Z,7.08
2019-05-25T22:16:43.094Z,7.80
2019-05-25T22:19:12.852Z,6.87
2019-05-25T22:21:41.244Z,7.08
2019-05-25T22:24:09.678Z,7.10
2019-05-25T22:26:38.041Z,6.53
2019-05-25T22:29:06.444Z,6.85
2019-05-25T22:31:34.847Z,6.75
2019-05-25T22:34:03.243Z,6.80
2019-05-25T22:36:40.209Z,6.55
2019-05-25T22:39:01.744Z,7.15
2019-05-25T22:41:30.127Z,6.35
2019-05-25T22:43:58.520Z,7.40
2019-05-25T22:46:26.919Z,6.22
2019-05-25T22:48:55.376Z,6.67
2019-05-25T22:51:23.841Z,6.85
2019-05-25T22:53:52.234Z,6.95
2019-05-25T22:56:20.620Z,6.60
2019-05-25T22:58:49.018Z,7.03
2019-05-25T23:01:17.408Z,6.92
2019-05-25T23:03:45.816Z,6.90
2019-05-25T23:06:14.204Z,6.30
2019-05-25T23:08:42.601Z,7.00
2019-05-25T23:11:10.991Z,7.65
2019-05-25T23:13:39.380Z,8.38
2019-05-25T23:16:09.435Z,6.95
2019-05-25T23:18:37.821Z,7.50
2019-05-25T23:21:06.208Z,7.05
2019-05-25T23:23:34.600Z,7.58
2019-05-25T23:26:02.995Z,7.45
2019-05-25T23:28:31.384Z,7.83
2019-05-25T23:30:59.793Z,7.10
2019-05-25T23:33:28.176Z,7.20
2019-05-25T23:35:56.569Z,7.03
2019-05-25T23:38:24.960Z,8.58
2019-05-25T23:40:53.363Z,8.03
2019-05-25T23:43:21.808Z,8.30
2019-05-25T23:45:50.210Z,8.55
2019-05-25T23:48:18.599Z,8.73
2019-05-25T23:50:46.997Z,8.78
2019-05-25T23:53:15.387Z,8.45
2019-05-25T23:55:43.793Z,8.28
2019-05-25T23:58:12.184Z,8.38
